sensor_id;sensor_type;location;lat;lon;timestamp;P1;durP1;ratioP1;P2;durP2;ratioP2
17259;SDS011;8746;49.230;9.220;2022-07-29T00:01:59;4.30;;;3.90;;
17259;SDS011;8746;49.230;9.220;2022-07-29T00:04:25;3.70;;;3.40;;
17259;SDS011;8746;49.230;9.220;2022-07-29T00:06:50;5.77;;;4.20;;
17259;SDS011;8746;49.230;9.220;2022-07-29T00:09:15;4.22;;;3.83;;
17259;SDS011;8746;49.230;9.220;2022-07-29T00:11:41;6.03;;;3.80;;
17259;SDS011;8746;49.230;9.220;2022-07-29T00:14:06;4.03;;;3.63;;
17259;SDS011;8746;49.230;9.220;2022-07-29T00:16:32;4.83;;;4.20;;
17259;SDS011;8746;49.230;9.220;2022-07-29T00:18:57;7.20;;;3.50;;
17259;SDS011;8746;49.230;9.220;2022-07-29T00:21:22;3.77;;;3.40;;
17259;SDS011;8746;49.230;9.220;2022-07-29T00:23:48;5.37;;;3.90;;
17259;SDS011;8746;49.230;9.220;2022-07-29T00:26:13;5.07;;;3.70;;
17259;SDS011;8746;49.230;9.220;2022-07-29T00:28:39;4.03;;;3.70;;
17259;SDS011;8746;49.230;9.220;2022-07-29T00:31:04;4.00;;;3.63;;
17259;SDS011;8746;49.230;9.220;2022-07-29T00:33:30;5.93;;;3.67;;
17259;SDS011;8746;49.230;9.220;2022-07-29T00:35:55;5.33;;;3.80;;
17259;SDS011;8746;49.230;9.220;2022-07-29T00:38:21;6.05;;;3.88;;
17259;SDS011;8746;49.230;9.220;2022-07-29T00:40:46;3.80;;;3.40;;
17259;SDS011;8746;49.230;9.220;2022-07-29T00:43:12;6.70;;;3.70;;
17259;SDS011;8746;49.230;9.220;2022-07-29T00:45:38;3.97;;;3.63;;
17259;SDS011;8746;49.230;9.220;2022-07-29T00:48:04;4.47;;;4.00;;
17259;SDS011;8746;49.230;9.220;2022-07-29T00:50:31;4.10;;;3.70;;
17259;SDS011;8746;49.230;9.220;2022-07-29T00:52:57;6.67;;;4.10;;
17259;SDS011;8746;49.230;9.220;2022-07-29T00:55:23;4.50;;;3.70;;
17259;SDS011;8746;49.230;9.220;2022-07-29T00:57:48;3.93;;;3.63;;
17259;SDS011;8746;49.230;9.220;2022-07-29T01:00:18;6.20;;;3.70;;
17259;SDS011;8746;49.230;9.220;2022-07-29T01:02:46;4.43;;;3.50;;
17259;SDS011;8746;49.230;9.220;2022-07-29T01:05:13;5.30;;;3.43;;
17259;SDS011;8746;49.230;9.220;2022-07-29T01:07:39;4.37;;;3.40;;
17259;SDS011;8746;49.230;9.220;2022-07-29T01:10:06;3.73;;;3.43;;
17259;SDS011;8746;49.230;9.220;2022-07-29T01:12:34;4.30;;;3.70;;
17259;SDS011;8746;49.230;9.220;2022-07-29T01:15:03;4.37;;;3.70;;
17259;SDS011;8746;49.230;9.220;2022-07-29T01:17:52;4.13;;;3.73;;
17259;SDS011;8746;49.230;9.220;2022-07-29T01:26:11;5.80;;;3.70;;
17259;SDS011;8746;49.230;9.220;2022-07-29T01:29:16;6.10;;;3.67;;
17259;SDS011;8746;49.230;9.220;2022-07-29T01:31:51;4.30;;;3.70;;
17259;SDS011;8746;49.230;9.220;2022-07-29T01:34:21;5.93;;;3.80;;
17259;SDS011;8746;49.230;9.220;2022-07-29T01:37:26;4.97;;;3.80;;
17259;SDS011;8746;49.230;9.220;2022-07-29T01:39:45;6.67;;;3.97;;
17259;SDS011;8746;49.230;9.220;2022-07-29T01:42:22;4.00;;;3.70;;
17259;SDS011;8746;49.230;9.220;2022-07-29T01:44:57;6.17;;;3.70;;
17259;SDS011;8746;49.230;9.220;2022-07-29T01:47:31;4.30;;;3.90;;
17259;SDS011;8746;49.230;9.220;2022-07-29T01:50:04;5.40;;;3.63;;
17259;SDS011;8746;49.230;9.220;2022-07-29T01:52:34;4.07;;;3.67;;
17259;SDS011;8746;49.230;9.220;2022-07-29T01:55:07;5.33;;;3.53;;
17259;SDS011;8746;49.230;9.220;2022-07-29T01:57:38;4.20;;;3.80;;
17259;SDS011;8746;49.230;9.220;2022-07-29T02:00:08;3.70;;;3.40;;
17259;SDS011;8746;49.230;9.220;2022-07-29T02:02:34;5.23;;;3.97;;
17259;SDS011;8746;49.230;9.220;2022-07-29T02:05:02;3.83;;;3.53;;
17259;SDS011;8746;49.230;9.220;2022-07-29T02:07:31;5.50;;;3.80;;
17259;SDS011;8746;49.230;9.220;2022-07-29T02:09:58;4.93;;;3.70;;
17259;SDS011;8746;49.230;9.220;2022-07-29T02:12:27;5.07;;;3.63;;
17259;SDS011;8746;49.230;9.220;2022-07-29T02:14:55;4.10;;;3.80;;
17259;SDS011;8746;49.230;9.220;2022-07-29T02:17:27;3.63;;;3.27;;
17259;SDS011;8746;49.230;9.220;2022-07-29T02:19:57;4.40;;;3.70;;
17259;SDS011;8746;49.230;9.220;2022-07-29T02:22:25;3.77;;;3.47;;
17259;SDS011;8746;49.230;9.220;2022-07-29T02:24:53;4.93;;;4.17;;
17259;SDS011;8746;49.230;9.220;2022-07-29T02:27:20;4.97;;;3.50;;
17259;SDS011;8746;49.230;9.220;2022-07-29T02:29:49;4.77;;;3.80;;
17259;SDS011;8746;49.230;9.220;2022-07-29T02:32:16;4.40;;;3.83;;
17259;SDS011;8746;49.230;9.220;2022-07-29T02:34:42;4.83;;;3.90;;
17259;SDS011;8746;49.230;9.220;2022-07-29T02:37:10;3.60;;;3.37;;
17259;SDS011;8746;49.230;9.220;2022-07-29T02:39:37;4.70;;;4.07;;
17259;SDS011;8746;49.230;9.220;2022-07-29T02:42:05;6.03;;;4.10;;
17259;SDS011;8746;49.230;9.220;2022-07-29T02:44:33;4.10;;;3.70;;
17259;SDS011;8746;49.230;9.220;2022-07-29T02:50:08;7.00;;;4.07;;
17259;SDS011;8746;49.230;9.220;2022-07-29T02:52:43;5.37;;;4.10;;
17259;SDS011;8746;49.230;9.220;2022-07-29T02:58:03;4.60;;;4.20;;
17259;SDS011;8746;49.230;9.220;2022-07-29T03:00:38;4.83;;;4.33;;
17259;SDS011;8746;49.230;9.220;2022-07-29T03:03:07;4.73;;;4.23;;
17259;SDS011;8746;49.230;9.220;2022-07-29T03:05:37;6.70;;;4.63;;
17259;SDS011;8746;49.230;9.220;2022-07-29T03:08:04;4.60;;;4.13;;
17259;SDS011;8746;49.230;9.220;2022-07-29T03:10:31;5.33;;;4.80;;
17259;SDS011;8746;49.230;9.220;2022-07-29T03:12:58;5.57;;;4.60;;
17259;SDS011;8746;49.230;9.220;2022-07-29T03:15:23;6.47;;;4.57;;
17259;SDS011;8746;49.230;9.220;2022-07-29T03:17:50;5.63;;;4.57;;
17259;SDS011;8746;49.230;9.220;2022-07-29T03:20:17;5.17;;;4.67;;
17259;SDS011;8746;49.230;9.220;2022-07-29T03:22:43;5.03;;;4.53;;
17259;SDS011;8746;49.230;9.220;2022-07-29T03:25:12;5.17;;;4.67;;
17259;SDS011;8746;49.230;9.220;2022-07-29T03:27:42;6.53;;;4.20;;
17259;SDS011;8746;49.230;9.220;2022-07-29T03:30:08;5.20;;;4.70;;
17259;SDS011;8746;49.230;9.220;2022-07-29T03:32:34;4.67;;;4.27;;
17259;SDS011;8746;49.230;9.220;2022-07-29T03:35:00;5.33;;;4.47;;
17259;SDS011;8746;49.230;9.220;2022-07-29T03:37:26;7.37;;;4.37;;
17259;SDS011;8746;49.230;9.220;2022-07-29T03:39:51;6.57;;;4.87;;
17259;SDS011;8746;49.230;9.220;2022-07-29T03:42:20;5.67;;;5.07;;
17259;SDS011;8746;49.230;9.220;2022-07-29T03:44:48;5.07;;;4.27;;
17259;SDS011;8746;49.230;9.220;2022-07-29T03:47:17;4.93;;;4.20;;
17259;SDS011;8746;49.230;9.220;2022-07-29T03:49:47;4.50;;;4.10;;
17259;SDS011;8746;49.230;9.220;2022-07-29T03:52:15;6.70;;;3.83;;
17259;SDS011;8746;49.230;9.220;2022-07-29T03:54:41;4.60;;;4.00;;
17259;SDS011;8746;49.230;9.220;2022-07-29T03:57:07;4.63;;;4.07;;
17259;SDS011;8746;49.230;9.220;2022-07-29T03:59:35;7.13;;;4.57;;
17259;SDS011;8746;49.230;9.220;2022-07-29T04:02:02;4.77;;;4.20;;
17259;SDS011;8746;49.230;9.220;2022-07-29T04:04:31;4.40;;;4.00;;
17259;SDS011;8746;49.230;9.220;2022-07-29T04:06:58;5.80;;;3.90;;
17259;SDS011;8746;49.230;9.220;2022-07-29T04:09:23;5.20;;;3.97;;
17259;SDS011;8746;49.230;9.220;2022-07-29T04:11:49;5.43;;;4.00;;
17259;SDS011;8746;49.230;9.220;2022-07-29T04:14:15;4.63;;;3.90;;
17259;SDS011;8746;49.230;9.220;2022-07-29T04:16:40;6.27;;;4.40;;
17259;SDS011;8746;49.230;9.220;2022-07-29T04:19:05;4.83;;;4.40;;
17259;SDS011;8746;49.230;9.220;2022-07-29T04:21:31;4.77;;;4.33;;
17259;SDS011;8746;49.230;9.220;2022-07-29T04:24:02;4.77;;;4.27;;
17259;SDS011;8746;49.230;9.220;2022-07-29T04:26:27;4.70;;;4.30;;
17259;SDS011;8746;49.230;9.220;2022-07-29T04:28:52;5.67;;;4.10;;
17259;SDS011;8746;49.230;9.220;2022-07-29T04:31:18;4.90;;;4.23;;
17259;SDS011;8746;49.230;9.220;2022-07-29T04:33:43;4.33;;;3.93;;
17259;SDS011;8746;49.230;9.220;2022-07-29T04:36:08;4.83;;;4.43;;
17259;SDS011;8746;49.230;9.220;2022-07-29T04:38:35;4.53;;;4.10;;
17259;SDS011;8746;49.230;9.220;2022-07-29T04:41:01;5.60;;;4.10;;
17259;SDS011;8746;49.230;9.220;2022-07-29T04:43:26;4.53;;;4.13;;
17259;SDS011;8746;49.230;9.220;2022-07-29T04:45:52;4.27;;;3.87;;
17259;SDS011;8746;49.230;9.220;2022-07-29T04:48:17;5.67;;;3.50;;
17259;SDS011;8746;49.230;9.220;2022-07-29T04:50:42;4.63;;;3.70;;
17259;SDS011;8746;49.230;9.220;2022-07-29T04:53:09;5.20;;;3.50;;
17259;SDS011;8746;49.230;9.220;2022-07-29T04:55:34;7.03;;;4.07;;
17259;SDS011;8746;49.230;9.220;2022-07-29T04:58:01;4.27;;;3.83;;
17259;SDS011;8746;49.230;9.220;2022-07-29T05:00:26;4.07;;;3.67;;
17259;SDS011;8746;49.230;9.220;2022-07-29T05:02:52;4.27;;;3.70;;
17259;SDS011;8746;49.230;9.220;2022-07-29T05:05:17;6.47;;;4.07;;
17259;SDS011;8746;49.230;9.220;2022-07-29T05:07:43;4.57;;;3.47;;
17259;SDS011;8746;49.230;9.220;2022-07-29T05:10:08;5.80;;;4.10;;
17259;SDS011;8746;49.230;9.220;2022-07-29T05:12:34;4.90;;;3.97;;
17259;SDS011;8746;49.230;9.220;2022-07-29T05:15:00;4.17;;;3.77;;
17259;SDS011;8746;49.230;9.220;2022-07-29T05:17:25;4.13;;;3.73;;
17259;SDS011;8746;49.230;9.220;2022-07-29T05:19:51;4.13;;;3.60;;
17259;SDS011;8746;49.230;9.220;2022-07-29T05:22:17;5.83;;;3.90;;
17259;SDS011;8746;49.230;9.220;2022-07-29T05:24:44;4.03;;;3.70;;
17259;SDS011;8746;49.230;9.220;2022-07-29T05:27:09;4.60;;;3.60;;
17259;SDS011;8746;49.230;9.220;2022-07-29T05:29:35;4.70;;;3.77;;
17259;SDS011;8746;49.230;9.220;2022-07-29T05:32:00;6.43;;;3.80;;
17259;SDS011;8746;49.230;9.220;2022-07-29T05:34:26;6.33;;;3.77;;
17259;SDS011;8746;49.230;9.220;2022-07-29T05:36:52;5.43;;;3.80;;
17259;SDS011;8746;49.230;9.220;2022-07-29T05:39:17;5.17;;;4.10;;
17259;SDS011;8746;49.230;9.220;2022-07-29T05:41:43;4.50;;;4.10;;
17259;SDS011;8746;49.230;9.220;2022-07-29T05:44:08;5.40;;;4.30;;
17259;SDS011;8746;49.230;9.220;2022-07-29T05:46:33;6.63;;;4.20;;
17259;SDS011;8746;49.230;9.220;2022-07-29T05:48:59;4.63;;;3.70;;
17259;SDS011;8746;49.230;9.220;2022-07-29T05:51:24;5.33;;;4.30;;
17259;SDS011;8746;49.230;9.220;2022-07-29T05:53:50;5.20;;;4.40;;
17259;SDS011;8746;49.230;9.220;2022-07-29T05:56:15;5.17;;;4.13;;
17259;SDS011;8746;49.230;9.220;2022-07-29T05:58:40;4.73;;;4.27;;
17259;SDS011;8746;49.230;9.220;2022-07-29T06:01:06;5.47;;;4.67;;
17259;SDS011;8746;49.230;9.220;2022-07-29T06:03:31;6.40;;;3.97;;
17259;SDS011;8746;49.230;9.220;2022-07-29T06:05:56;5.07;;;4.40;;
17259;SDS011;8746;49.230;9.220;2022-07-29T06:08:22;4.70;;;3.93;;
17259;SDS011;8746;49.230;9.220;2022-07-29T06:10:48;5.33;;;4.07;;
17259;SDS011;8746;49.230;9.220;2022-07-29T06:13:13;4.53;;;4.10;;
17259;SDS011;8746;49.230;9.220;2022-07-29T06:15:40;5.67;;;4.20;;
17259;SDS011;8746;49.230;9.220;2022-07-29T06:18:06;4.13;;;3.73;;
17259;SDS011;8746;49.230;9.220;2022-07-29T06:20:34;5.90;;;4.00;;
17259;SDS011;8746;49.230;9.220;2022-07-29T06:22:59;4.27;;;3.93;;
17259;SDS011;8746;49.230;9.220;2022-07-29T06:25:25;5.27;;;4.30;;
17259;SDS011;8746;49.230;9.220;2022-07-29T06:27:51;5.43;;;4.00;;
17259;SDS011;8746;49.230;9.220;2022-07-29T06:30:17;6.50;;;4.10;;
17259;SDS011;8746;49.230;9.220;2022-07-29T06:32:42;4.33;;;3.93;;
17259;SDS011;8746;49.230;9.220;2022-07-29T06:35:07;4.73;;;4.23;;
17259;SDS011;8746;49.230;9.220;2022-07-29T06:37:33;4.27;;;3.93;;
17259;SDS011;8746;49.230;9.220;2022-07-29T06:39:59;4.33;;;3.93;;
17259;SDS011;8746;49.230;9.220;2022-07-29T06:43:03;5.53;;;4.00;;
17259;SDS011;8746;49.230;9.220;2022-07-29T06:45:29;5.43;;;4.17;;
17259;SDS011;8746;49.230;9.220;2022-07-29T06:47:54;4.50;;;4.00;;
17259;SDS011;8746;49.230;9.220;2022-07-29T06:50:19;5.63;;;4.07;;
17259;SDS011;8746;49.230;9.220;2022-07-29T06:52:46;4.27;;;3.50;;
17259;SDS011;8746;49.230;9.220;2022-07-29T06:55:12;4.50;;;4.10;;
17259;SDS011;8746;49.230;9.220;2022-07-29T06:57:37;7.00;;;4.03;;
17259;SDS011;8746;49.230;9.220;2022-07-29T07:00:03;6.47;;;4.37;;
17259;SDS011;8746;49.230;9.220;2022-07-29T07:02:30;5.82;;;4.20;;
17259;SDS011;8746;49.230;9.220;2022-07-29T07:04:55;4.22;;;3.88;;
17259;SDS011;8746;49.230;9.220;2022-07-29T07:07:20;5.17;;;3.90;;
17259;SDS011;8746;49.230;9.220;2022-07-29T07:09:46;4.63;;;4.23;;
17259;SDS011;8746;49.230;9.220;2022-07-29T07:12:11;4.25;;;3.88;;
17259;SDS011;8746;49.230;9.220;2022-07-29T07:14:36;5.72;;;3.72;;
17259;SDS011;8746;49.230;9.220;2022-07-29T07:17:02;4.68;;;4.28;;
17259;SDS011;8746;49.230;9.220;2022-07-29T07:19:28;4.57;;;3.92;;
17259;SDS011;8746;49.230;9.220;2022-07-29T07:21:54;4.82;;;4.43;;
17259;SDS011;8746;49.230;9.220;2022-07-29T07:24:20;6.07;;;4.00;;
17259;SDS011;8746;49.230;9.220;2022-07-29T07:26:45;9.75;;;4.25;;
17259;SDS011;8746;49.230;9.220;2022-07-29T07:29:10;6.55;;;3.78;;
17259;SDS011;8746;49.230;9.220;2022-07-29T07:31:37;4.72;;;3.85;;
17259;SDS011;8746;49.230;9.220;2022-07-29T07:34:02;4.68;;;3.90;;
17259;SDS011;8746;49.230;9.220;2022-07-29T07:36:28;5.32;;;3.78;;
17259;SDS011;8746;49.230;9.220;2022-07-29T07:38:54;5.45;;;3.92;;
17259;SDS011;8746;49.230;9.220;2022-07-29T07:41:19;4.68;;;3.67;;
17259;SDS011;8746;49.230;9.220;2022-07-29T07:43:45;5.30;;;4.22;;
17259;SDS011;8746;49.230;9.220;2022-07-29T07:46:10;4.40;;;3.97;;
17259;SDS011;8746;49.230;9.220;2022-07-29T07:48:36;4.35;;;3.90;;
17259;SDS011;8746;49.230;9.220;2022-07-29T07:51:01;6.13;;;4.20;;
17259;SDS011;8746;49.230;9.220;2022-07-29T07:53:27;4.85;;;3.97;;
17259;SDS011;8746;49.230;9.220;2022-07-29T07:55:54;6.90;;;3.95;;
17259;SDS011;8746;49.230;9.220;2022-07-29T07:58:20;4.43;;;4.03;;
17259;SDS011;8746;49.230;9.220;2022-07-29T08:00:46;4.18;;;3.78;;
17259;SDS011;8746;49.230;9.220;2022-07-29T08:03:12;6.55;;;4.07;;
17259;SDS011;8746;49.230;9.220;2022-07-29T08:05:38;6.68;;;4.40;;
17259;SDS011;8746;49.230;9.220;2022-07-29T08:08:05;7.57;;;3.88;;
17259;SDS011;8746;49.230;9.220;2022-07-29T08:10:31;6.47;;;4.45;;
17259;SDS011;8746;49.230;9.220;2022-07-29T08:13:15;7.30;;;3.80;;
17259;SDS011;8746;49.230;9.220;2022-07-29T08:15:40;6.82;;;5.18;;
17259;SDS011;8746;49.230;9.220;2022-07-29T08:18:07;6.93;;;4.25;;
17259;SDS011;8746;49.230;9.220;2022-07-29T08:20:33;5.53;;;4.10;;
17259;SDS011;8746;49.230;9.220;2022-07-29T08:23:00;5.70;;;3.58;;
17259;SDS011;8746;49.230;9.220;2022-07-29T08:25:26;4.43;;;4.03;;
17259;SDS011;8746;49.230;9.220;2022-07-29T08:27:51;4.90;;;3.80;;
17259;SDS011;8746;49.230;9.220;2022-07-29T08:30:16;6.25;;;4.30;;
17259;SDS011;8746;49.230;9.220;2022-07-29T08:32:42;3.90;;;3.60;;
17259;SDS011;8746;49.230;9.220;2022-07-29T08:35:07;4.18;;;3.78;;
17259;SDS011;8746;49.230;9.220;2022-07-29T08:37:33;5.93;;;3.75;;
17259;SDS011;8746;49.230;9.220;2022-07-29T08:39:59;4.70;;;3.40;;
17259;SDS011;8746;49.230;9.220;2022-07-29T08:42:24;6.30;;;3.92;;
17259;SDS011;8746;49.230;9.220;2022-07-29T08:44:50;4.68;;;4.13;;
17259;SDS011;8746;49.230;9.220;2022-07-29T08:47:16;4.45;;;3.92;;
17259;SDS011;8746;49.230;9.220;2022-07-29T08:49:41;4.93;;;4.40;;
17259;SDS011;8746;49.230;9.220;2022-07-29T08:52:09;5.85;;;4.00;;
17259;SDS011;8746;49.230;9.220;2022-07-29T08:54:35;7.07;;;3.92;;
17259;SDS011;8746;49.230;9.220;2022-07-29T08:57:01;4.45;;;4.15;;
17259;SDS011;8746;49.230;9.220;2022-07-29T08:59:27;5.78;;;4.60;;
17259;SDS011;8746;49.230;9.220;2022-07-29T09:01:55;4.35;;;3.97;;
17259;SDS011;8746;49.230;9.220;2022-07-29T09:04:24;4.40;;;4.10;;
17259;SDS011;8746;49.230;9.220;2022-07-29T09:06:52;4.80;;;4.05;;
17259;SDS011;8746;49.230;9.220;2022-07-29T09:09:22;4.28;;;3.97;;
17259;SDS011;8746;49.230;9.220;2022-07-29T09:11:47;4.70;;;4.13;;
17259;SDS011;8746;49.230;9.220;2022-07-29T09:14:13;4.70;;;4.30;;
17259;SDS011;8746;49.230;9.220;2022-07-29T09:16:46;4.80;;;4.28;;
17259;SDS011;8746;49.230;9.220;2022-07-29T09:19:19;4.20;;;3.80;;
17259;SDS011;8746;49.230;9.220;2022-07-29T09:21:46;6.55;;;4.28;;
17259;SDS011;8746;49.230;9.220;2022-07-29T09:24:25;7.03;;;4.10;;
17259;SDS011;8746;49.230;9.220;2022-07-29T09:27:00;6.85;;;4.60;;
17259;SDS011;8746;49.230;9.220;2022-07-29T09:29:25;5.70;;;4.32;;
17259;SDS011;8746;49.230;9.220;2022-07-29T09:31:52;4.82;;;4.32;;
17259;SDS011;8746;49.230;9.220;2022-07-29T09:34:22;7.80;;;4.22;;
17259;SDS011;8746;49.230;9.220;2022-07-29T09:36:50;5.50;;;4.20;;
17259;SDS011;8746;49.230;9.220;2022-07-29T09:42:12;4.63;;;4.22;;
17259;SDS011;8746;49.230;9.220;2022-07-29T09:44:42;4.72;;;4.32;;
17259;SDS011;8746;49.230;9.220;2022-07-29T09:47:08;4.45;;;4.10;;
17259;SDS011;8746;49.230;9.220;2022-07-29T09:49:33;5.68;;;4.15;;
17259;SDS011;8746;49.230;9.220;2022-07-29T09:52:04;5.75;;;4.47;;
17259;SDS011;8746;49.230;9.220;2022-07-29T09:54:31;4.20;;;3.90;;
17259;SDS011;8746;49.230;9.220;2022-07-29T09:57:02;5.93;;;4.13;;
17259;SDS011;8746;49.230;9.220;2022-07-29T09:59:37;4.35;;;3.88;;
17259;SDS011;8746;49.230;9.220;2022-07-29T10:02:11;4.60;;;4.07;;
17259;SDS011;8746;49.230;9.220;2022-07-29T10:04:41;4.68;;;4.22;;
17259;SDS011;8746;49.230;9.220;2022-07-29T10:07:07;5.10;;;4.10;;
17259;SDS011;8746;49.230;9.220;2022-07-29T10:09:34;4.68;;;4.25;;
17259;SDS011;8746;49.230;9.220;2022-07-29T10:12:04;6.60;;;4.18;;
17259;SDS011;8746;49.230;9.220;2022-07-29T10:14:31;4.68;;;3.95;;
17259;SDS011;8746;49.230;9.220;2022-07-29T10:16:59;4.38;;;4.03;;
17259;SDS011;8746;49.230;9.220;2022-07-29T10:19:25;4.60;;;4.20;;
17259;SDS011;8746;49.230;9.220;2022-07-29T10:21:51;7.30;;;4.50;;
17259;SDS011;8746;49.230;9.220;2022-07-29T10:24:17;5.88;;;4.43;;
17259;SDS011;8746;49.230;9.220;2022-07-29T10:26:43;5.07;;;4.28;;
17259;SDS011;8746;49.230;9.220;2022-07-29T10:29:11;4.93;;;4.32;;
17259;SDS011;8746;49.230;9.220;2022-07-29T10:31:40;7.15;;;4.38;;
17259;SDS011;8746;49.230;9.220;2022-07-29T10:34:23;4.28;;;3.90;;
17259;SDS011;8746;49.230;9.220;2022-07-29T10:40:08;4.40;;;4.10;;
17259;SDS011;8746;49.230;9.220;2022-07-29T10:43:03;9.73;;;4.30;;
17259;SDS011;8746;49.230;9.220;2022-07-29T10:45:39;5.25;;;3.80;;
17259;SDS011;8746;49.230;9.220;2022-07-29T10:48:05;4.85;;;4.45;;
17259;SDS011;8746;49.230;9.220;2022-07-29T10:53:20;9.27;;;4.00;;
17259;SDS011;8746;49.230;9.220;2022-07-29T10:55:46;5.00;;;4.50;;
17259;SDS011;8746;49.230;9.220;2022-07-29T10:58:22;5.50;;;4.50;;
17259;SDS011;8746;49.230;9.220;2022-07-29T11:00:50;6.03;;;4.38;;
17259;SDS011;8746;49.230;9.220;2022-07-29T11:06:16;5.53;;;4.13;;
17259;SDS011;8746;49.230;9.220;2022-07-29T11:08:42;6.32;;;4.50;;
17259;SDS011;8746;49.230;9.220;2022-07-29T11:13:46;4.78;;;4.28;;
17259;SDS011;8746;49.230;9.220;2022-07-29T11:16:15;4.63;;;4.22;;
17259;SDS011;8746;49.230;9.220;2022-07-29T11:21:41;4.90;;;4.60;;
17259;SDS011;8746;49.230;9.220;2022-07-29T11:24:12;4.40;;;4.00;;
17259;SDS011;8746;49.230;9.220;2022-07-29T11:26:42;5.40;;;4.90;;
17259;SDS011;8746;49.230;9.220;2022-07-29T11:31:43;5.40;;;4.63;;
17259;SDS011;8746;49.230;9.220;2022-07-29T11:34:24;5.75;;;5.03;;
17259;SDS011;8746;49.230;9.220;2022-07-29T11:39:35;5.20;;;4.72;;
17259;SDS011;8746;49.230;9.220;2022-07-29T11:44:57;5.60;;;5.00;;
17259;SDS011;8746;49.230;9.220;2022-07-29T11:47:31;5.13;;;4.50;;
17259;SDS011;8746;49.230;9.220;2022-07-29T11:49:59;4.70;;;4.30;;
17259;SDS011;8746;49.230;9.220;2022-07-29T11:52:35;5.05;;;4.63;;
17259;SDS011;8746;49.230;9.220;2022-07-29T11:55:03;5.20;;;4.35;;
17259;SDS011;8746;49.230;9.220;2022-07-29T11:57:30;4.85;;;4.40;;
17259;SDS011;8746;49.230;9.220;2022-07-29T11:59:59;4.80;;;4.40;;
17259;SDS011;8746;49.230;9.220;2022-07-29T12:02:25;6.13;;;4.70;;
17259;SDS011;8746;49.230;9.220;2022-07-29T12:05:03;5.45;;;4.50;;
17259;SDS011;8746;49.230;9.220;2022-07-29T12:07:32;5.88;;;4.40;;
17259;SDS011;8746;49.230;9.220;2022-07-29T12:09:59;6.43;;;4.20;;
17259;SDS011;8746;49.230;9.220;2022-07-29T12:12:25;4.70;;;3.90;;
17259;SDS011;8746;49.230;9.220;2022-07-29T12:14:51;5.10;;;4.07;;
17259;SDS011;8746;49.230;9.220;2022-07-29T12:17:30;5.07;;;4.45;;
17259;SDS011;8746;49.230;9.220;2022-07-29T12:19:58;4.40;;;4.10;;
17259;SDS011;8746;49.230;9.220;2022-07-29T12:22:30;4.53;;;4.05;;
17259;SDS011;8746;49.230;9.220;2022-07-29T12:25:05;4.13;;;3.83;;
17259;SDS011;8746;49.230;9.220;2022-07-29T12:27:34;4.60;;;3.92;;
17259;SDS011;8746;49.230;9.220;2022-07-29T12:30:01;4.78;;;4.03;;
17259;SDS011;8746;49.230;9.220;2022-07-29T12:32:38;4.90;;;3.70;;
17259;SDS011;8746;49.230;9.220;2022-07-29T12:35:08;4.28;;;3.88;;
17259;SDS011;8746;49.230;9.220;2022-07-29T12:37:34;5.63;;;3.80;;
17259;SDS011;8746;49.230;9.220;2022-07-29T12:40:02;5.03;;;3.30;;
17259;SDS011;8746;49.230;9.220;2022-07-29T12:42:29;4.63;;;3.47;;
17259;SDS011;8746;49.230;9.220;2022-07-29T12:44:54;4.25;;;3.85;;
17259;SDS011;8746;49.230;9.220;2022-07-29T12:47:20;4.40;;;4.00;;
17259;SDS011;8746;49.230;9.220;2022-07-29T12:49:45;3.63;;;3.33;;
17259;SDS011;8746;49.230;9.220;2022-07-29T12:54:57;4.00;;;3.70;;
17259;SDS011;8746;49.230;9.220;2022-07-29T12:57:23;5.40;;;3.90;;
17259;SDS011;8746;49.230;9.220;2022-07-29T13:02:24;3.83;;;3.47;;
17259;SDS011;8746;49.230;9.220;2022-07-29T13:04:59;3.85;;;3.55;;
17259;SDS011;8746;49.230;9.220;2022-07-29T13:07:26;4.30;;;3.90;;
17259;SDS011;8746;49.230;9.220;2022-07-29T13:09:54;4.82;;;4.07;;
17259;SDS011;8746;49.230;9.220;2022-07-29T13:12:34;5.85;;;3.85;;
17259;SDS011;8746;49.230;9.220;2022-07-29T13:14:59;4.10;;;3.70;;
17259;SDS011;8746;49.230;9.220;2022-07-29T13:17:25;5.30;;;3.80;;
17259;SDS011;8746;49.230;9.220;2022-07-29T13:20:07;5.10;;;3.50;;
17259;SDS011;8746;49.230;9.220;2022-07-29T13:22:37;6.60;;;3.35;;
17259;SDS011;8746;49.230;9.220;2022-07-29T13:25:03;5.93;;;3.75;;
17259;SDS011;8746;49.230;9.220;2022-07-29T13:27:29;4.63;;;3.50;;
17259;SDS011;8746;49.230;9.220;2022-07-29T13:30:01;5.60;;;3.60;;
17259;SDS011;8746;49.230;9.220;2022-07-29T13:32:29;6.68;;;3.65;;
17259;SDS011;8746;49.230;9.220;2022-07-29T13:34:55;5.10;;;3.70;;
17259;SDS011;8746;49.230;9.220;2022-07-29T13:37:21;6.20;;;3.80;;
17259;SDS011;8746;49.230;9.220;2022-07-29T13:39:46;5.10;;;3.55;;
17259;SDS011;8746;49.230;9.220;2022-07-29T13:42:12;6.10;;;3.70;;
17259;SDS011;8746;49.230;9.220;2022-07-29T13:44:38;5.28;;;3.30;;
17259;SDS011;8746;49.230;9.220;2022-07-29T13:47:04;3.45;;;3.15;;
17259;SDS011;8746;49.230;9.220;2022-07-29T13:49:29;4.50;;;3.45;;
17259;SDS011;8746;49.230;9.220;2022-07-29T13:51:55;3.45;;;3.15;;
17259;SDS011;8746;49.230;9.220;2022-07-29T13:54:20;5.63;;;3.20;;
17259;SDS011;8746;49.230;9.220;2022-07-29T13:56:45;4.95;;;3.13;;
17259;SDS011;8746;49.230;9.220;2022-07-29T13:59:11;4.95;;;3.10;;
17259;SDS011;8746;49.230;9.220;2022-07-29T14:01:37;3.65;;;3.35;;
17259;SDS011;8746;49.230;9.220;2022-07-29T14:04:06;5.88;;;3.28;;
17259;SDS011;8746;49.230;9.220;2022-07-29T14:06:32;3.50;;;3.20;;
17259;SDS011;8746;49.230;9.220;2022-07-29T14:08:57;3.60;;;3.30;;
17259;SDS011;8746;49.230;9.220;2022-07-29T14:11:22;3.80;;;3.35;;
17259;SDS011;8746;49.230;9.220;2022-07-29T14:13:48;6.20;;;3.20;;
17259;SDS011;8746;49.230;9.220;2022-07-29T14:16:13;5.35;;;3.55;;
17259;SDS011;8746;49.230;9.220;2022-07-29T14:18:39;5.03;;;3.58;;
17259;SDS011;8746;49.230;9.220;2022-07-29T14:21:04;4.43;;;3.20;;
17259;SDS011;8746;49.230;9.220;2022-07-29T14:23:30;5.07;;;3.45;;
17259;SDS011;8746;49.230;9.220;2022-07-29T14:25:55;3.63;;;3.30;;
17259;SDS011;8746;49.230;9.220;2022-07-29T14:28:20;4.68;;;3.30;;
17259;SDS011;8746;49.230;9.220;2022-07-29T14:30:46;3.33;;;3.00;;
17259;SDS011;8746;49.230;9.220;2022-07-29T14:33:11;6.40;;;3.15;;
17259;SDS011;8746;49.230;9.220;2022-07-29T14:35:37;5.90;;;3.17;;
17259;SDS011;8746;49.230;9.220;2022-07-29T14:38:02;8.45;;;3.20;;
17259;SDS011;8746;49.230;9.220;2022-07-29T14:40:28;3.33;;;3.13;;
17259;SDS011;8746;49.230;9.220;2022-07-29T14:42:53;5.65;;;3.13;;
17259;SDS011;8746;49.230;9.220;2022-07-29T14:45:19;8.25;;;3.45;;
17259;SDS011;8746;49.230;9.220;2022-07-29T14:47:44;3.33;;;3.03;;
17259;SDS011;8746;49.230;9.220;2022-07-29T14:50:09;3.53;;;3.22;;
17259;SDS011;8746;49.230;9.220;2022-07-29T14:52:35;5.05;;;3.28;;
17259;SDS011;8746;49.230;9.220;2022-07-29T14:55:00;4.43;;;3.30;;
17259;SDS011;8746;49.230;9.220;2022-07-29T14:57:26;4.93;;;3.10;;
17259;SDS011;8746;49.230;9.220;2022-07-29T14:59:52;3.67;;;3.38;;
17259;SDS011;8746;49.230;9.220;2022-07-29T15:02:17;5.18;;;3.13;;
17259;SDS011;8746;49.230;9.220;2022-07-29T15:04:42;3.65;;;3.33;;
17259;SDS011;8746;49.230;9.220;2022-07-29T15:07:10;3.55;;;3.15;;
17259;SDS011;8746;49.230;9.220;2022-07-29T15:09:35;4.30;;;3.17;;
17259;SDS011;8746;49.230;9.220;2022-07-29T15:12:01;5.43;;;3.40;;
17259;SDS011;8746;49.230;9.220;2022-07-29T15:14:27;7.13;;;3.22;;
17259;SDS011;8746;49.230;9.220;2022-07-29T15:16:53;4.18;;;3.17;;
17259;SDS011;8746;49.230;9.220;2022-07-29T15:19:19;4.70;;;3.05;;
17259;SDS011;8746;49.230;9.220;2022-07-29T15:21:44;4.07;;;2.60;;
17259;SDS011;8746;49.230;9.220;2022-07-29T15:24:09;4.30;;;2.90;;
17259;SDS011;8746;49.230;9.220;2022-07-29T15:26:35;3.45;;;2.70;;
17259;SDS011;8746;49.230;9.220;2022-07-29T15:29:00;5.28;;;2.80;;
17259;SDS011;8746;49.230;9.220;2022-07-29T15:31:26;7.53;;;2.85;;
17259;SDS011;8746;49.230;9.220;2022-07-29T15:33:51;4.15;;;2.53;;
17259;SDS011;8746;49.230;9.220;2022-07-29T15:36:16;5.55;;;2.72;;
17259;SDS011;8746;49.230;9.220;2022-07-29T15:38:42;4.05;;;2.70;;
17259;SDS011;8746;49.230;9.220;2022-07-29T15:41:09;3.92;;;2.30;;
17259;SDS011;8746;49.230;9.220;2022-07-29T15:43:34;3.13;;;2.30;;
17259;SDS011;8746;49.230;9.220;2022-07-29T15:46:00;5.65;;;2.55;;